Aviation Digital Data Service (ADDS)

Output produced by TAFs form (1147 UTC 22 September 2017)
found at http://aviationweather.gov/adds/tafs/
 
KASE 221136Z 2212/2312 17004KT P6SM SCT140 
     FM221700 20011G20KT P6SM SCT060 BKN140 
     FM221900 20011G23KT P6SM VCTS SCT070CB BKN080 
     FM230000 21010G20KT P6SM VCSH SCT070 BKN090 
     FM230200 18005KT P6SM VCSH SCT060 BKN110 
     FM230600 16005KT P6SM BKN110